Time;durP1;ratioP1;P1;durP2;ratioP2;P2;SDS_P1;SDS_P2;PMS_P1;PMS_P2;Temp;Humidity;BMP_temperature;BMP_pressure;BME280_temperature;BME280_humidity;BME280_pressure;Samples;Min_cycle;Max_cycle;Signal;HPM_P1;HPM_P2
2022/07/13 04:03:02;;;;;;;1999.90;999.90;;;;;;;;;;6244064;22;20185;-70
2022/07/13 04:05:47;;;;;;;1999.90;999.90;;;;;;;;;;6244767;23;20623;-70
2022/07/13 04:08:32;;;;;;;1999.90;999.90;;;;;;;;;;6244022;23;20245;-70
2022/07/13 04:11:17;;;;;;;1999.90;999.90;;;;;;;;;;6256584;22;20298;-69
2022/07/13 04:14:02;;;;;;;1999.90;999.90;;;;;;;;;;6275001;22;20618;-69
2022/07/13 04:16:48;;;;;;;1999.90;999.90;;;;;;;;;;6275189;22;20192;-69
2022/07/13 04:19:34;;;;;;;1999.90;999.90;;;;;;;;;;6274557;22;20210;-69
2022/07/13 04:22:19;;;;;;;1999.90;999.90;;;;;;;;;;6274829;22;20311;-69
2022/07/13 04:25:05;;;;;;;1999.90;999.90;;;;;;;;;;6275347;22;20226;-69
2022/07/13 04:27:50;;;;;;;1999.90;999.90;;;;;;;;;;6274563;22;20164;-69
2022/07/13 04:30:35;;;;;;;1999.90;999.90;;;;;;;;;;6274871;22;20196;-69
2022/07/13 04:33:20;;;;;;;1999.90;999.90;;;;;;;;;;6274856;22;20176;-69
2022/07/13 04:36:08;;;;;;;1999.90;999.90;;;;;;;;;;6274393;22;20380;-69
2022/07/13 04:38:53;;;;;;;1999.90;999.90;;;;;;;;;;6273403;22;20165;-68
2022/07/13 04:41:38;;;;;;;1999.90;999.90;;;;;;;;;;6274050;22;20633;-70
2022/07/13 04:44:25;;;;;;;1999.90;999.90;;;;;;;;;;6275920;22;20662;-69
2022/07/13 04:47:10;;;;;;;1999.90;999.90;;;;;;;;;;6275862;22;20319;-69
2022/07/13 04:49:55;;;;;;;1999.90;999.90;;;;;;;;;;6275071;22;20189;-68
2022/07/13 04:52:42;;;;;;;1999.90;999.90;;;;;;;;;;6275164;22;20200;-69
2022/07/13 04:55:28;;;;;;;1999.90;999.90;;;;;;;;;;6275450;22;20167;-68
2022/07/13 04:58:13;;;;;;;1999.90;999.90;;;;;;;;;;6275139;22;20168;-69
2022/07/13 05:01:00;;;;;;;1999.90;999.90;;;;;;;;;;6274300;22;20244;-68
2022/07/13 05:03:45;;;;;;;1999.90;999.90;;;;;;;;;;6275177;22;20168;-68
2022/07/13 05:06:30;;;;;;;1999.90;999.90;;;;;;;;;;6275702;22;20283;-69
2022/07/13 05:09:16;;;;;;;1999.90;999.90;;;;;;;;;;6272905;22;20434;-69
2022/07/13 05:12:01;;;;;;;1999.90;999.90;;;;;;;;;;6276313;22;20228;-67
2022/07/13 05:14:46;;;;;;;1999.90;999.90;;;;;;;;;;6276508;22;20606;-72
2022/07/13 05:17:32;;;;;;;1999.90;999.90;;;;;;;;;;6276515;22;20249;-68
2022/07/13 05:20:17;;;;;;;1999.90;999.90;;;;;;;;;;6276690;22;20168;-69
2022/07/13 05:23:01;;;;;;;1999.90;999.90;;;;;;;;;;6276664;22;20161;-69
2022/07/13 05:25:48;;;;;;;1999.90;999.90;;;;;;;;;;6274245;22;20372;-67
2022/07/13 05:28:33;;;;;;;1999.90;999.90;;;;;;;;;;6274022;22;20169;-69
2022/07/13 05:31:18;;;;;;;1999.90;999.90;;;;;;;;;;6275166;22;20291;-68
2022/07/13 05:34:02;;;;;;;1999.90;999.90;;;;;;;;;;6274172;22;20170;-70
2022/07/13 05:36:47;;;;;;;1999.90;999.90;;;;;;;;;;6275160;22;20336;-68
2022/07/13 05:39:32;;;;;;;1999.90;999.90;;;;;;;;;;6275976;22;20168;-69
2022/07/13 05:42:18;;;;;;;1999.90;999.90;;;;;;;;;;6276429;22;20674;-69
2022/07/13 05:45:04;;;;;;;1999.90;999.90;;;;;;;;;;6276237;22;20168;-69
2022/07/13 05:47:49;;;;;;;1999.90;999.90;;;;;;;;;;6275902;22;20165;-68
2022/07/13 05:50:34;;;;;;;1999.90;999.90;;;;;;;;;;6276192;22;20168;-70
2022/07/13 05:53:19;;;;;;;1999.90;999.90;;;;;;;;;;6275061;22;20197;-70
2022/07/13 05:56:04;;;;;;;1999.90;999.90;;;;;;;;;;6274191;22;20168;-69
2022/07/13 05:58:51;;;;;;;1999.90;999.90;;;;;;;;;;6272737;22;20426;-70
2022/07/13 06:01:36;;;;;;;1999.90;999.90;;;;;;;;;;6272638;22;20209;-70
2022/07/13 06:04:21;;;;;;;1999.90;999.90;;;;;;;;;;6272660;22;20252;-71
2022/07/13 06:07:06;;;;;;;1999.90;999.90;;;;;;;;;;6272821;22;20172;-70
2022/07/13 06:09:51;;;;;;;1999.90;999.90;;;;;;;;;;6272316;22;20496;-69
2022/07/13 06:12:36;;;;;;;1999.90;999.90;;;;;;;;;;6272475;22;20212;-70
2022/07/13 06:15:22;;;;;;;1999.90;999.90;;;;;;;;;;6272507;22;20519;-70
2022/07/13 06:18:07;;;;;;;1999.90;999.90;;;;;;;;;;6273502;22;20166;-69
2022/07/13 06:20:52;;;;;;;1999.90;999.90;;;;;;;;;;6273462;22;20285;-71
2022/07/13 06:23:38;;;;;;;1999.90;999.90;;;;;;;;;;6273440;22;20636;-70
2022/07/13 06:26:23;;;;;;;1999.90;999.90;;;;;;;;;;6272998;22;20222;-69
2022/07/13 06:29:08;;;;;;;1999.90;999.90;;;;;;;;;;6272114;22;20164;-69
2022/07/13 06:31:54;;;;;;;1999.90;999.90;;;;;;;;;;6273504;22;20702;-70
2022/07/13 06:34:39;;;;;;;1999.90;999.90;;;;;;;;;;6273528;22;20165;-69
2022/07/13 06:37:24;;;;;;;1999.90;999.90;;;;;;;;;;6273125;22;20175;-70
2022/07/13 06:40:10;;;;;;;1999.90;999.90;;;;;;;;;;6272847;22;20166;-70
2022/07/13 06:42:55;;;;;;;1999.90;999.90;;;;;;;;;;6272374;22;20644;-69
2022/07/13 06:45:40;;;;;;;1999.90;999.90;;;;;;;;;;6273159;22;20251;-69
2022/07/13 06:48:27;;;;;;;1999.90;999.90;;;;;;;;;;6271850;22;20179;-70
2022/07/13 06:51:12;;;;;;;1999.90;999.90;;;;;;;;;;6272294;22;20279;-69
2022/07/13 06:53:57;;;;;;;1999.90;999.90;;;;;;;;;;6272732;22;20170;-71
2022/07/13 06:56:42;;;;;;;1999.90;999.90;;;;;;;;;;6272550;22;20168;-69
2022/07/13 06:59:27;;;;;;;1999.90;999.90;;;;;;;;;;6272064;22;20168;-70
2022/07/13 07:02:12;;;;;;;1999.90;999.90;;;;;;;;;;6273500;22;20246;-69
2022/07/13 07:04:58;;;;;;;1999.90;999.90;;;;;;;;;;6273339;22;20195;-69
2022/07/13 07:07:43;;;;;;;1999.90;999.90;;;;;;;;;;6272964;22;20202;-69
2022/07/13 07:10:27;;;;;;;1999.90;999.90;;;;;;;;;;6273500;22;20171;-69
2022/07/13 07:13:13;;;;;;;1999.90;999.90;;;;;;;;;;6273561;22;20214;-69
2022/07/13 07:16:00;;;;;;;1999.90;999.90;;;;;;;;;;6272551;22;20168;-69
2022/07/13 07:18:45;;;;;;;1999.90;999.90;;;;;;;;;;6272364;22;20180;-69
2022/07/13 07:21:33;;;;;;;1999.90;999.90;;;;;;;;;;6272449;22;20719;-69
2022/07/13 07:24:18;;;;;;;1999.90;999.90;;;;;;;;;;6272060;22;20169;-69
2022/07/13 07:27:07;;;;;;;1999.90;999.90;;;;;;;;;;6273189;22;20234;-69
2022/07/13 07:29:52;;;;;;;1999.90;999.90;;;;;;;;;;6272917;22;20689;-69
2022/07/13 07:32:37;;;;;;;1999.90;999.90;;;;;;;;;;6272917;22;20283;-70
2022/07/13 07:35:22;;;;;;;1999.90;999.90;;;;;;;;;;6273099;22;20662;-70
2022/07/13 07:38:08;;;;;;;1999.90;999.90;;;;;;;;;;6272590;22;20250;-70
2022/07/13 07:40:53;;;;;;;1999.90;999.90;;;;;;;;;;6271417;22;20654;-68
2022/07/13 07:43:38;;;;;;;1999.90;999.90;;;;;;;;;;6272094;22;20243;-70
2022/07/13 07:46:23;;;;;;;1999.90;999.90;;;;;;;;;;6272290;22;20630;-69
2022/07/13 07:49:08;;;;;;;1999.90;999.90;;;;;;;;;;6273759;22;20218;-70
2022/07/13 07:51:53;;;;;;;1999.90;999.90;;;;;;;;;;6273842;22;20200;-70
2022/07/13 07:54:39;;;;;;;1999.90;999.90;;;;;;;;;;6274595;22;20622;-70
2022/07/13 07:57:24;;;;;;;1999.90;999.90;;;;;;;;;;6274900;22;20168;-70
2022/07/13 08:00:10;;;;;;;1999.90;999.90;;;;;;;;;;6274823;22;20168;-69
2022/07/13 08:02:57;;;;;;;1999.90;999.90;;;;;;;;;;6274170;22;20183;-70
2022/07/13 08:05:45;;;;;;;1999.90;999.90;;;;;;;;;;6274911;22;20164;-69
2022/07/13 08:08:30;;;;;;;1999.90;999.90;;;;;;;;;;6274578;22;20161;-70
2022/07/13 08:11:17;;;;;;;1999.90;999.90;;;;;;;;;;6274854;22;20200;-70
2022/07/13 08:14:02;;;;;;;1999.90;999.90;;;;;;;;;;6274094;22;20164;-70
2022/07/13 08:16:48;;;;;;;1999.90;999.90;;;;;;;;;;6276141;22;20219;-71
2022/07/13 08:19:32;;;;;;;1999.90;999.90;;;;;;;;;;6277685;22;20210;-71
2022/07/13 08:22:17;;;;;;;1999.90;999.90;;;;;;;;;;6278148;22;20276;-70
2022/07/13 08:25:02;;;;;;;1999.90;999.90;;;;;;;;;;6278253;22;20164;-71
2022/07/13 08:27:48;;;;;;;1999.90;999.90;;;;;;;;;;6277438;22;20164;-70
2022/07/13 08:30:37;;;;;;;1999.90;999.90;;;;;;;;;;6275433;22;20448;-71
2022/07/13 08:38:34;;;;;;;1999.90;999.90;;;;;;;;;;6277901;22;20192;-70
2022/07/13 08:39:30;;;;;;;1999.90;999.90;;;;;;;;;;6276490;22;20179;-69
2022/07/13 08:42:14;;;;;;;1999.90;999.90;;;;;;;;;;6277298;22;20661;-70
2022/07/13 08:45:01;;;;;;;1999.90;999.90;;;;;;;;;;6277340;22;20500;-69
2022/07/13 08:47:47;;;;;;;1999.90;999.90;;;;;;;;;;6273475;22;20498;-69
2022/07/13 08:50:33;;;;;;;1999.90;999.90;;;;;;;;;;6275673;22;20175;-71
2022/07/13 08:53:20;;;;;;;1999.90;999.90;;;;;;;;;;6275706;22;20191;-70
2022/07/13 08:56:05;;;;;;;1999.90;999.90;;;;;;;;;;6275922;22;20168;-70
2022/07/13 08:58:51;;;;;;;1999.90;999.90;;;;;;;;;;6275611;22;20168;-70
2022/07/13 09:01:37;;;;;;;1999.90;999.90;;;;;;;;;;6274988;22;20216;-69
2022/07/13 09:04:23;;;;;;;1999.90;999.90;;;;;;;;;;6277309;22;20618;-69
2022/07/13 09:07:10;;;;;;;1999.90;999.90;;;;;;;;;;6276275;22;20187;-69
2022/07/13 09:09:56;;;;;;;1999.90;999.90;;;;;;;;;;6277565;22;20167;-70
2022/07/13 09:12:42;;;;;;;1999.90;999.90;;;;;;;;;;6277915;22;20278;-70
2022/07/13 09:15:27;;;;;;;1999.90;999.90;;;;;;;;;;6276730;22;20167;-70
2022/07/13 09:18:19;;;;;;;1999.90;999.90;;;;;;;;;;6277868;22;20248;-69
2022/07/13 09:21:04;;;;;;;1999.90;999.90;;;;;;;;;;6278138;22;20199;-70
2022/07/13 09:23:50;;;;;;;1999.90;999.90;;;;;;;;;;6278004;22;20164;-71
2022/07/13 09:26:41;;;;;;;1999.90;999.90;;;;;;;;;;6278013;22;20298;-70
2022/07/13 09:29:28;;;;;;;1999.90;999.90;;;;;;;;;;6275860;22;20169;-70
2022/07/13 09:32:14;;;;;;;1999.90;999.90;;;;;;;;;;6276262;22;20200;-70
2022/07/13 09:35:03;;;;;;;1999.90;999.90;;;;;;;;;;6276364;22;20180;-69
2022/07/13 09:37:48;;;;;;;1999.90;999.90;;;;;;;;;;6276228;22;20501;-71
2022/07/13 09:40:32;;;;;;;1999.90;999.90;;;;;;;;;;6276342;22;20168;-70
2022/07/13 09:46:20;;;;;;;1999.90;999.90;;;;;;;;;;6276572;22;20160;-70
2022/07/13 09:49:05;;;;;;;1999.90;999.90;;;;;;;;;;6276117;22;20172;-70
2022/07/13 09:51:58;;;;;;;1999.90;999.90;;;;;;;;;;6276203;22;20370;-70
2022/07/13 09:54:44;;;;;;;1999.90;999.90;;;;;;;;;;6276208;22;20164;-70
2022/07/13 09:57:29;;;;;;;1999.90;999.90;;;;;;;;;;6275978;22;20167;-70
2022/07/13 10:00:17;;;;;;;1999.90;999.90;;;;;;;;;;6276406;22;20216;-70
2022/07/13 10:03:02;;;;;;;1999.90;999.90;;;;;;;;;;6276510;22;20199;-69
2022/07/13 10:05:48;;;;;;;1999.90;999.90;;;;;;;;;;6276419;22;20164;-70
2022/07/13 10:08:34;;;;;;;1999.90;999.90;;;;;;;;;;6274252;22;20435;-70
2022/07/13 10:11:20;;;;;;;1999.90;999.90;;;;;;;;;;6275839;22;20204;-70
2022/07/13 10:14:05;;;;;;;1999.90;999.90;;;;;;;;;;6276169;22;20188;-70
2022/07/13 10:16:52;;;;;;;1999.90;999.90;;;;;;;;;;6276011;22;20187;-70
2022/07/13 10:19:41;;;;;;;1999.90;999.90;;;;;;;;;;6275557;22;20172;-70
2022/07/13 10:22:28;;;;;;;1999.90;999.90;;;;;;;;;;6275964;22;20203;-70
2022/07/13 10:25:16;;;;;;;1999.90;999.90;;;;;;;;;;6275143;22;20391;-70
2022/07/13 10:28:04;;;;;;;1999.90;999.90;;;;;;;;;;6275422;22;20168;-70
2022/07/13 10:30:49;;;;;;;1999.90;999.90;;;;;;;;;;6275892;22;20250;-69
2022/07/13 10:33:34;;;;;;;1999.90;999.90;;;;;;;;;;6275643;22;20200;-70
2022/07/13 10:36:39;;;;;;;1999.90;999.90;;;;;;;;;;6275755;22;20515;-70
2022/07/13 10:39:25;;;;;;;1999.90;999.90;;;;;;;;;;6275336;22;20511;-70
2022/07/13 10:42:11;;;;;;;1999.90;999.90;;;;;;;;;;6275538;22;20588;-70
2022/07/13 10:44:56;;;;;;;1999.90;999.90;;;;;;;;;;6275751;22;20231;-70
2022/07/13 10:47:45;;;;;;;1999.90;999.90;;;;;;;;;;6275617;22;20626;-70
2022/07/13 10:50:34;;;;;;;1999.90;999.90;;;;;;;;;;6275513;22;20168;-70
2022/07/13 10:53:19;;;;;;;1999.90;999.90;;;;;;;;;;6275433;22;20227;-70
2022/07/13 10:56:05;;;;;;;1999.90;999.90;;;;;;;;;;6275850;22;20168;-69
2022/07/13 10:58:51;;;;;;;1999.90;999.90;;;;;;;;;;6275244;22;20167;-70
2022/07/13 11:01:42;;;;;;;1999.90;999.90;;;;;;;;;;6275286;22;20223;-70
2022/07/13 11:04:44;;;;;;;1999.90;999.90;;;;;;;;;;6275496;22;20176;-70
2022/07/13 11:07:39;;;;;;;1999.90;999.90;;;;;;;;;;6275284;22;20219;-70
2022/07/13 11:10:25;;;;;;;1999.90;999.90;;;;;;;;;;6275485;22;20164;-70
2022/07/13 11:13:12;;;;;;;1999.90;999.90;;;;;;;;;;6275357;22;20191;-70
2022/07/13 11:15:59;;;;;;;1999.90;999.90;;;;;;;;;;6273632;22;20371;-70
2022/07/13 11:18:52;;;;;;;1999.90;999.90;;;;;;;;;;6275144;22;20466;-70
2022/07/13 11:22:03;;;;;;;1999.90;999.90;;;;;;;;;;6275290;22;20276;-70
2022/07/13 11:25:14;;;;;;;1999.90;999.90;;;;;;;;;;6275340;22;20164;-70
2022/07/13 11:28:04;;;;;;;1999.90;999.90;;;;;;;;;;6274911;22;20168;-70
2022/07/13 11:30:52;;;;;;;1999.90;999.90;;;;;;;;;;6275179;22;20274;-69
2022/07/13 11:33:38;;;;;;;1999.90;999.90;;;;;;;;;;6275201;22;20271;-70
2022/07/13 11:36:24;;;;;;;1999.90;999.90;;;;;;;;;;6275246;22;20630;-70
2022/07/13 11:39:21;;;;;;;1999.90;999.90;;;;;;;;;;6274779;22;20665;-70
2022/07/13 11:42:07;;;;;;;1999.90;999.90;;;;;;;;;;6275510;22;20283;-70
2022/07/13 11:44:52;;;;;;;1999.90;999.90;;;;;;;;;;6275179;22;20223;-70
2022/07/13 11:47:38;;;;;;;1999.90;999.90;;;;;;;;;;6275054;22;20203;-70
2022/07/13 11:50:24;;;;;;;1999.90;999.90;;;;;;;;;;6274952;22;20164;-70
2022/07/13 11:53:10;;;;;;;1999.90;999.90;;;;;;;;;;6275021;22;20187;-70
2022/07/13 11:55:56;;;;;;;1999.90;999.90;;;;;;;;;;6275044;22;20206;-70
2022/07/13 11:58:45;;;;;;;1999.90;999.90;;;;;;;;;;6274881;22;20164;-70
2022/07/13 12:01:30;;;;;;;1999.90;999.90;;;;;;;;;;6274900;22;20216;-70
2022/07/13 12:04:21;;;;;;;1999.90;999.90;;;;;;;;;;6274458;22;20708;-70
2022/07/13 12:07:11;;;;;;;1999.90;999.90;;;;;;;;;;6275015;22;20168;-70
2022/07/13 12:09:56;;;;;;;1999.90;999.90;;;;;;;;;;6274703;22;20238;-70
2022/07/13 12:12:42;;;;;;;1999.90;999.90;;;;;;;;;;6274676;22;20266;-70
2022/07/13 12:15:27;;;;;;;1999.90;999.90;;;;;;;;;;6275086;22;20252;-70
2022/07/13 12:18:13;;;;;;;1999.90;999.90;;;;;;;;;;6274538;22;20184;-70
2022/07/13 12:20:59;;;;;;;1999.90;999.90;;;;;;;;;;6274829;22;20198;-70
2022/07/13 12:23:48;;;;;;;1999.90;999.90;;;;;;;;;;6274913;22;20195;-70
2022/07/13 12:26:34;;;;;;;1999.90;999.90;;;;;;;;;;6275000;22;20207;-70
2022/07/13 12:29:28;;;;;;;1999.90;999.90;;;;;;;;;;6274580;22;20550;-70
2022/07/13 12:32:13;;;;;;;1999.90;999.90;;;;;;;;;;6274704;22;20199;-70
2022/07/13 12:34:58;;;;;;;1999.90;999.90;;;;;;;;;;6275043;22;20168;-69
2022/07/13 12:37:43;;;;;;;1999.90;999.90;;;;;;;;;;6274927;22;20169;-71
2022/07/13 12:40:43;;;;;;;1999.90;999.90;;;;;;;;;;6275303;22;20251;-70
2022/07/13 12:43:29;;;;;;;1999.90;999.90;;;;;;;;;;6274796;22;20227;-70
2022/07/13 12:46:15;;;;;;;1999.90;999.90;;;;;;;;;;6275181;22;20207;-70
2022/07/13 12:49:01;;;;;;;1999.90;999.90;;;;;;;;;;6274527;22;20167;-70
2022/07/13 12:51:49;;;;;;;1999.90;999.90;;;;;;;;;;6274618;22;20203;-70
2022/07/13 12:54:41;;;;;;;1999.90;999.90;;;;;;;;;;6273665;22;20431;-69
2022/07/13 12:57:27;;;;;;;1999.90;999.90;;;;;;;;;;6274802;22;20165;-70
2022/07/13 13:00:13;;;;;;;1999.90;999.90;;;;;;;;;;6274954;22;20164;-70
2022/07/13 13:03:00;;;;;;;1999.90;999.90;;;;;;;;;;6275173;22;20188;-70
2022/07/13 13:05:45;;;;;;;1999.90;999.90;;;;;;;;;;6276628;22;20248;-70
2022/07/13 13:08:30;;;;;;;1999.90;999.90;;;;;;;;;;6276201;22;20650;-70
2022/07/13 13:11:15;;;;;;;1999.90;999.90;;;;;;;;;;6276543;22;20263;-70
2022/07/13 13:14:01;;;;;;;1999.90;999.90;;;;;;;;;;6276435;22;20189;-70
2022/07/13 13:16:46;;;;;;;1999.90;999.90;;;;;;;;;;6276489;22;20299;-70
2022/07/13 13:19:31;;;;;;;1999.90;999.90;;;;;;;;;;6276135;22;20176;-70
2022/07/13 13:22:16;;;;;;;1999.90;999.90;;;;;;;;;;6276358;22;20203;-70
2022/07/13 13:25:00;;;;;;;1999.90;999.90;;;;;;;;;;6275981;22;20853;-69
2022/07/13 13:27:45;;;;;;;1999.90;999.90;;;;;;;;;;6276286;22;20167;-70
2022/07/13 13:30:46;;;;;;;1999.90;999.90;;;;;;;;;;6276336;22;20211;-70
2022/07/13 13:33:30;;;;;;;1999.90;999.90;;;;;;;;;;6276292;22;20637;-70
2022/07/13 13:36:15;;;;;;;1999.90;999.90;;;;;;;;;;6276639;22;20164;-70
2022/07/13 13:39:00;;;;;;;1999.90;999.90;;;;;;;;;;6276163;22;20164;-70
2022/07/13 13:41:46;;;;;;;1999.90;999.90;;;;;;;;;;6276217;22;20292;-70
2022/07/13 13:44:31;;;;;;;1999.90;999.90;;;;;;;;;;6276281;22;20243;-70
2022/07/13 13:47:17;;;;;;;1999.90;999.90;;;;;;;;;;6276315;22;20504;-70
2022/07/13 13:50:03;;;;;;;1999.90;999.90;;;;;;;;;;6276298;22;20175;-71
2022/07/13 13:52:48;;;;;;;1999.90;999.90;;;;;;;;;;6276170;22;20624;-70
2022/07/13 13:55:33;;;;;;;1999.90;999.90;;;;;;;;;;6276368;22;20161;-70
2022/07/13 13:58:18;;;;;;;1999.90;999.90;;;;;;;;;;6275877;22;20168;-70
2022/07/13 14:01:03;;;;;;;1999.90;999.90;;;;;;;;;;6276176;22;20211;-70
2022/07/13 14:03:49;;;;;;;1999.90;999.90;;;;;;;;;;6276230;22;20246;-70
2022/07/13 14:06:34;;;;;;;1999.90;999.90;;;;;;;;;;6276162;22;20191;-70
2022/07/13 14:09:19;;;;;;;1999.90;999.90;;;;;;;;;;6275990;22;20298;-71
2022/07/13 14:12:04;;;;;;;1999.90;999.90;;;;;;;;;;6275983;22;20200;-70
2022/07/13 14:14:49;;;;;;;1999.90;999.90;;;;;;;;;;6274946;22;20400;-71
2022/07/13 14:17:34;;;;;;;1999.90;999.90;;;;;;;;;;6276120;22;20168;-71
2022/07/13 14:20:23;;;;;;;1999.90;999.90;;;;;;;;;;6275464;22;20167;-70
2022/07/13 14:23:09;;;;;;;1999.90;999.90;;;;;;;;;;6275860;22;20167;-71
2022/07/13 14:25:53;;;;;;;1999.90;999.90;;;;;;;;;;6275908;22;20619;-70
2022/07/13 14:28:39;;;;;;;1999.90;999.90;;;;;;;;;;6275378;22;20533;-70
2022/07/13 14:31:23;;;;;;;1999.90;999.90;;;;;;;;;;6275767;22;20648;-70
2022/07/13 14:34:09;;;;;;;1999.90;999.90;;;;;;;;;;6275753;22;20717;-70
2022/07/13 14:36:55;;;;;;;1999.90;999.90;;;;;;;;;;6275631;22;20168;-70
2022/07/13 14:39:40;;;;;;;1999.90;999.90;;;;;;;;;;6273964;22;20183;-69
2022/07/13 14:42:25;;;;;;;1999.90;999.90;;;;;;;;;;6275161;22;20274;-70
2022/07/13 14:45:10;;;;;;;1999.90;999.90;;;;;;;;;;6275291;22;20163;-70
2022/07/13 14:47:56;;;;;;;1999.90;999.90;;;;;;;;;;6272308;22;20757;-69
2022/07/13 14:50:41;;;;;;;1999.90;999.90;;;;;;;;;;6273502;22;20730;-69
2022/07/13 14:53:28;;;;;;;1999.90;999.90;;;;;;;;;;6272786;22;20211;-70
2022/07/13 14:56:12;;;;;;;1999.90;999.90;;;;;;;;;;6275414;22;20167;-70
2022/07/13 14:58:58;;;;;;;1999.90;999.90;;;;;;;;;;6274503;22;20172;-68
2022/07/13 15:01:44;;;;;;;1999.90;999.90;;;;;;;;;;6275166;22;20741;-70
2022/07/13 15:04:29;;;;;;;1999.90;999.90;;;;;;;;;;6275537;22;20176;-70
2022/07/13 15:07:15;;;;;;;1999.90;999.90;;;;;;;;;;6275422;22;20256;-69
2022/07/13 15:10:01;;;;;;;1999.90;999.90;;;;;;;;;;6275207;22;20164;-68
2022/07/13 15:12:46;;;;;;;1999.90;999.90;;;;;;;;;;6275365;22;20241;-67
2022/07/13 15:15:32;;;;;;;1999.90;999.90;;;;;;;;;;6274951;22;20422;-69
2022/07/13 15:18:17;;;;;;;1999.90;999.90;;;;;;;;;;6274429;22;20165;-70
2022/07/13 15:21:03;;;;;;;1999.90;999.90;;;;;;;;;;6274633;22;20242;-70
2022/07/13 15:23:47;;;;;;;1999.90;999.90;;;;;;;;;;6274664;22;20246;-71
2022/07/13 15:26:34;;;;;;;1999.90;999.90;;;;;;;;;;6273919;22;20219;-70
2022/07/13 15:29:19;;;;;;;1999.90;999.90;;;;;;;;;;6274533;22;20615;-71
2022/07/13 15:32:04;;;;;;;1999.90;999.90;;;;;;;;;;6274182;22;20203;-70
2022/07/13 15:34:49;;;;;;;1999.90;999.90;;;;;;;;;;6273594;22;20389;-70
2022/07/13 15:37:34;;;;;;;1999.90;999.90;;;;;;;;;;6274361;22;20548;-69
2022/07/13 15:40:19;;;;;;;1999.90;999.90;;;;;;;;;;6274214;22;20164;-69
2022/07/13 15:43:06;;;;;;;1999.90;999.90;;;;;;;;;;6272852;22;20168;-71
2022/07/13 15:45:51;;;;;;;1999.90;999.90;;;;;;;;;;6273049;22;20159;-70
2022/07/13 15:48:36;;;;;;;1999.90;999.90;;;;;;;;;;6276343;22;20260;-70
2022/07/13 15:51:21;;;;;;;1999.90;999.90;;;;;;;;;;6279023;22;20204;-71
2022/07/13 15:54:06;;;;;;;1999.90;999.90;;;;;;;;;;6278744;22;20188;-70
2022/07/13 15:56:52;;;;;;;1999.90;999.90;;;;;;;;;;6273624;22;20264;-70
2022/07/13 15:59:38;;;;;;;1999.90;999.90;;;;;;;;;;6274526;22;20171;-70
2022/07/13 16:02:23;;;;;;;1999.90;999.90;;;;;;;;;;6274785;22;20246;-70
2022/07/13 16:05:08;;;;;;;1999.90;999.90;;;;;;;;;;6274334;22;20164;-71
2022/07/13 16:07:53;;;;;;;1999.90;999.90;;;;;;;;;;6274453;22;20169;-70
2022/07/13 16:10:38;;;;;;;1999.90;999.90;;;;;;;;;;6274655;22;20172;-70
2022/07/13 16:13:23;;;;;;;1999.90;999.90;;;;;;;;;;6274844;22;20168;-70
2022/07/13 16:16:10;;;;;;;1999.90;999.90;;;;;;;;;;6272244;22;20164;-70
2022/07/13 16:18:55;;;;;;;1999.90;999.90;;;;;;;;;;6274691;22;20646;-70
2022/07/13 16:21:43;;;;;;;1999.90;999.90;;;;;;;;;;6275615;22;20383;-69
2022/07/13 16:24:28;;;;;;;1999.90;999.90;;;;;;;;;;6277748;22;20192;-70
2022/07/13 16:27:13;;;;;;;1999.90;999.90;;;;;;;;;;6277155;22;20254;-71
2022/07/13 16:29:58;;;;;;;1999.90;999.90;;;;;;;;;;6276610;22;20585;-70
2022/07/13 16:32:44;;;;;;;1999.90;999.90;;;;;;;;;;6274934;22;20216;-71
2022/07/13 16:35:29;;;;;;;1999.90;999.90;;;;;;;;;;6274405;22;20231;-71
2022/07/13 16:38:14;;;;;;;1999.90;999.90;;;;;;;;;;6276101;22;20509;-71
2022/07/13 16:40:59;;;;;;;1999.90;999.90;;;;;;;;;;6276798;22;20203;-71
2022/07/13 16:43:44;;;;;;;1999.90;999.90;;;;;;;;;;6276553;22;20203;-70
2022/07/13 16:46:30;;;;;;;1999.90;999.90;;;;;;;;;;6274252;22;20222;-71
2022/07/13 16:49:16;;;;;;;1999.90;999.90;;;;;;;;;;6275693;22;20445;-70
2022/07/13 16:52:02;;;;;;;1999.90;999.90;;;;;;;;;;6276666;22;20375;-70
2022/07/13 16:54:47;;;;;;;1999.90;999.90;;;;;;;;;;6275791;22;20515;-70
2022/07/13 16:57:33;;;;;;;1999.90;999.90;;;;;;;;;;6276915;22;20622;-70
2022/07/13 17:00:19;;;;;;;1999.90;999.90;;;;;;;;;;6275741;22;20163;-70
2022/07/13 17:03:05;;;;;;;1999.90;999.90;;;;;;;;;;6276104;22;20246;-70
2022/07/13 17:05:52;;;;;;;1999.90;999.90;;;;;;;;;;6276676;22;20215;-70
2022/07/13 17:08:37;;;;;;;1999.90;999.90;;;;;;;;;;6275155;22;20164;-70
2022/07/13 17:11:22;;;;;;;1999.90;999.90;;;;;;;;;;6274228;22;20383;-71
2022/07/13 17:14:07;;;;;;;1999.90;999.90;;;;;;;;;;6275920;22;20172;-71
2022/07/13 17:16:52;;;;;;;1999.90;999.90;;;;;;;;;;6275467;22;20665;-71
2022/07/13 17:19:37;;;;;;;1999.90;999.90;;;;;;;;;;6275508;22;20171;-70
2022/07/13 17:22:24;;;;;;;1999.90;999.90;;;;;;;;;;6273821;22;20334;-72
2022/07/13 17:25:10;;;;;;;1999.90;999.90;;;;;;;;;;6275378;22;20160;-70
2022/07/13 17:27:55;;;;;;;1999.90;999.90;;;;;;;;;;6275772;22;20198;-71
2022/07/13 17:30:40;;;;;;;1999.90;999.90;;;;;;;;;;6275273;22;21609;-71
2022/07/13 17:33:25;;;;;;;1999.90;999.90;;;;;;;;;;6276140;22;20171;-72
2022/07/13 17:36:09;;;;;;;1999.90;999.90;;;;;;;;;;6275894;22;20530;-70
2022/07/13 17:38:56;;;;;;;1999.90;999.90;;;;;;;;;;6274862;22;20171;-70
2022/07/13 17:41:41;;;;;;;1999.90;999.90;;;;;;;;;;6275192;22;20858;-71
2022/07/13 17:44:26;;;;;;;1999.90;999.90;;;;;;;;;;6275455;22;20503;-71
2022/07/13 17:47:11;;;;;;;1999.90;999.90;;;;;;;;;;6274525;22;20168;-71
2022/07/13 17:49:56;;;;;;;1999.90;999.90;;;;;;;;;;6275201;22;20245;-69
2022/07/13 17:52:40;;;;;;;1999.90;999.90;;;;;;;;;;6276050;22;20249;-70
2022/07/13 17:55:27;;;;;;;1999.90;999.90;;;;;;;;;;6275379;22;20268;-69
2022/07/13 17:58:12;;;;;;;1999.90;999.90;;;;;;;;;;6273937;22;20240;-69
2022/07/13 18:00:57;;;;;;;1999.90;999.90;;;;;;;;;;6275768;22;20280;-69
2022/07/13 18:03:42;;;;;;;1999.90;999.90;;;;;;;;;;6275725;22;20168;-69
2022/07/13 18:06:27;;;;;;;1999.90;999.90;;;;;;;;;;6275773;22;20166;-70
2022/07/13 18:09:12;;;;;;;1999.90;999.90;;;;;;;;;;6275693;22;20448;-71
2022/07/13 18:11:59;;;;;;;1999.90;999.90;;;;;;;;;;6275784;22;20203;-71
2022/07/13 18:14:44;;;;;;;1999.90;999.90;;;;;;;;;;6275935;22;20571;-70
2022/07/13 18:17:30;;;;;;;1999.90;999.90;;;;;;;;;;6274179;22;20670;-70
2022/07/13 18:20:15;;;;;;;1999.90;999.90;;;;;;;;;;6275884;22;20619;-69
2022/07/13 18:25:59;;;;;;;1999.90;999.90;;;;;;;;;;6275016;22;20314;-70
2022/07/13 18:28:45;;;;;;;1999.90;999.90;;;;;;;;;;6274628;22;20516;-70
2022/07/13 18:31:30;;;;;;;1999.90;999.90;;;;;;;;;;6274173;22;20288;-70
2022/07/13 18:34:15;;;;;;;1999.90;999.90;;;;;;;;;;6275193;22;20235;-70
2022/07/13 18:36:59;;;;;;;1999.90;999.90;;;;;;;;;;6275767;22;20291;-70
2022/07/13 18:39:44;;;;;;;1999.90;999.90;;;;;;;;;;6273291;22;20388;-69
2022/07/13 18:42:29;;;;;;;1999.90;999.90;;;;;;;;;;6275260;22;20604;-69
2022/07/13 18:45:15;;;;;;;1999.90;999.90;;;;;;;;;;6274520;22;20160;-70
2022/07/13 18:48:00;;;;;;;1999.90;999.90;;;;;;;;;;6275334;22;20211;-70
2022/07/13 18:50:46;;;;;;;1999.90;999.90;;;;;;;;;;6275656;22;20199;-70
2022/07/13 18:53:31;;;;;;;1999.90;999.90;;;;;;;;;;6275791;22;20235;-70
2022/07/13 18:56:17;;;;;;;1999.90;999.90;;;;;;;;;;6274916;22;20187;-70
2022/07/13 18:59:02;;;;;;;1999.90;999.90;;;;;;;;;;6273275;22;20505;-69
2022/07/13 19:01:49;;;;;;;1999.90;999.90;;;;;;;;;;6275399;22;20547;-69
2022/07/13 19:04:33;;;;;;;1999.90;999.90;;;;;;;;;;6275541;22;20267;-70
2022/07/13 19:07:19;;;;;;;1999.90;999.90;;;;;;;;;;6275486;22;20247;-70
2022/07/13 19:10:04;;;;;;;1999.90;999.90;;;;;;;;;;6275336;22;20203;-70
2022/07/13 19:12:49;;;;;;;1999.90;999.90;;;;;;;;;;6274420;22;20175;-70
2022/07/13 19:15:34;;;;;;;1999.90;999.90;;;;;;;;;;6273765;22;20188;-70
2022/07/13 19:18:20;;;;;;;1999.90;999.90;;;;;;;;;;6274901;22;20628;-70
2022/07/13 19:21:06;;;;;;;1999.90;999.90;;;;;;;;;;6275294;22;20288;-70
2022/07/13 19:23:51;;;;;;;1999.90;999.90;;;;;;;;;;6275339;22;20169;-70
2022/07/13 19:29:38;;;;;;;1999.90;999.90;;;;;;;;;;6273657;22;20653;-70
2022/07/13 19:32:23;;;;;;;1999.90;999.90;;;;;;;;;;6273150;22;20207;-70
2022/07/13 19:35:09;;;;;;;1999.90;999.90;;;;;;;;;;6271775;22;20198;-70
2022/07/13 19:37:55;;;;;;;1999.90;999.90;;;;;;;;;;6273357;22;20214;-68
2022/07/13 19:40:39;;;;;;;1999.90;999.90;;;;;;;;;;6274265;22;20774;-70